createdAt,value
2022-09-18T00:01:36.974Z,1.10
2022-09-18T00:04:07.155Z,1.40
2022-09-18T00:06:38.579Z,1.50
2022-09-18T00:09:09.674Z,1.27
2022-09-18T00:11:42.505Z,2.10
2022-09-18T00:14:13.787Z,1.77
2022-09-18T00:16:42.427Z,2.30
2022-09-18T00:19:11.384Z,1.70
2022-09-18T00:21:42.152Z,1.60
2022-09-18T00:24:10.421Z,1.70
2022-09-18T00:26:40.214Z,1.70
2022-09-18T00:29:08.783Z,2.33
2022-09-18T00:31:37.945Z,1.90
2022-09-18T00:34:08.571Z,2.22
2022-09-18T00:36:37.396Z,2.00
2022-09-18T00:39:08.389Z,1.90
2022-09-18T00:41:40.824Z,1.60
2022-09-18T00:44:38.127Z,1.52
2022-09-18T00:47:21.677Z,1.33
2022-09-18T00:49:54.099Z,1.30
2022-09-18T00:52:28.058Z,1.70
2022-09-18T00:55:00.604Z,1.50
2022-09-18T00:57:33.971Z,1.60
2022-09-18T01:00:04.631Z,1.60
2022-09-18T01:02:33.001Z,1.80
2022-09-18T01:05:01.317Z,2.10
2022-09-18T01:07:40.149Z,1.70
2022-09-18T01:10:19.633Z,1.42
2022-09-18T01:12:56.111Z,1.90
2022-09-18T01:15:31.752Z,2.60
2022-09-18T01:18:09.798Z,2.40
2022-09-18T01:21:02.320Z,3.25
2022-09-18T01:24:04.862Z,4.63
2022-09-18T01:26:48.906Z,4.65
2022-09-18T01:29:40.470Z,4.33
2022-09-18T01:32:18.996Z,3.70
2022-09-18T01:34:50.927Z,3.75
2022-09-18T01:37:23.248Z,4.00
2022-09-18T01:39:57.573Z,3.70
2022-09-18T01:42:29.692Z,3.30
2022-09-18T01:45:03.234Z,3.60
2022-09-18T01:47:36.776Z,2.90
2022-09-18T01:50:07.833Z,3.15
2022-09-18T01:52:41.798Z,3.00
2022-09-18T01:55:15.336Z,3.20
2022-09-18T01:57:49.286Z,3.75
2022-09-18T02:00:21.747Z,3.47
2022-09-18T02:02:55.567Z,3.90
2022-09-18T02:05:30.954Z,3.90
2022-09-18T02:08:08.867Z,3.13
2022-09-18T02:10:45.748Z,3.17
2022-09-18T02:13:20.969Z,2.80
2022-09-18T02:15:53.299Z,3.27
2022-09-18T02:18:28.207Z,2.63
2022-09-18T02:20:59.731Z,2.60
2022-09-18T02:23:29.865Z,2.30
2022-09-18T02:26:01.594Z,2.90
2022-09-18T02:28:31.661Z,3.17
2022-09-18T02:31:01.297Z,3.45
2022-09-18T02:33:34.796Z,3.17
2022-09-18T02:36:15.649Z,2.30
2022-09-18T02:38:50.671Z,3.08
2022-09-18T02:41:29.523Z,2.60
2022-09-18T02:44:05.599Z,2.10
2022-09-18T02:46:50.830Z,2.33
2022-09-18T02:49:31.728Z,2.42
2022-09-18T02:52:05.721Z,2.30
2022-09-18T02:54:41.666Z,2.00
2022-09-18T02:57:15.265Z,2.30
2022-09-18T02:59:47.796Z,1.50
2022-09-18T03:02:20.861Z,2.33
2022-09-18T03:04:49.595Z,3.00
2022-09-18T03:07:24.950Z,2.33
2022-09-18T03:09:53.895Z,2.00
2022-09-18T03:12:22.136Z,2.28
2022-09-18T03:14:50.707Z,2.50
2022-09-18T03:17:20.237Z,2.42
2022-09-18T03:19:48.603Z,2.40
2022-09-18T03:22:16.802Z,2.13
2022-09-18T03:24:44.975Z,3.20
2022-09-18T03:27:15.263Z,2.65
2022-09-18T03:29:43.594Z,2.40
2022-09-18T03:32:12.933Z,3.10
2022-09-18T03:34:47.231Z,3.00
2022-09-18T03:37:16.525Z,2.75
2022-09-18T03:39:46.244Z,3.35
2022-09-18T03:42:16.055Z,3.07
2022-09-18T03:44:44.310Z,3.30
2022-09-18T03:47:31.801Z,3.03
2022-09-18T03:50:04.108Z,3.00
2022-09-18T03:52:34.563Z,3.10
2022-09-18T03:55:14.221Z,3.47
2022-09-18T03:58:00.808Z,3.20
2022-09-18T04:00:46.705Z,3.95
2022-09-18T04:03:23.727Z,3.80
2022-09-18T04:06:22.299Z,3.75
2022-09-18T04:09:25.479Z,3.53
2022-09-18T04:11:55.943Z,3.80
2022-09-18T04:14:29.277Z,3.80
2022-09-18T04:16:59.085Z,3.53
2022-09-18T04:19:27.295Z,3.70
2022-09-18T04:21:59.489Z,3.70
2022-09-18T04:24:27.837Z,3.70
2022-09-18T04:26:55.994Z,3.20
2022-09-18T04:29:27.048Z,3.50
2022-09-18T04:31:55.306Z,3.47
2022-09-18T04:34:26.172Z,3.67
2022-09-18T04:36:55.105Z,3.78
2022-09-18T04:39:24.752Z,3.80
2022-09-18T04:41:53.211Z,3.40
2022-09-18T04:44:21.523Z,3.70
2022-09-18T04:46:52.790Z,2.95
2022-09-18T04:49:21.621Z,3.00
2022-09-18T04:51:50.330Z,3.25
2022-09-18T04:54:18.577Z,3.60
2022-09-18T04:56:48.106Z,3.90
2022-09-18T04:59:16.454Z,3.65
2022-09-18T05:01:47.756Z,3.45
2022-09-18T05:04:17.463Z,3.70
2022-09-18T05:06:55.748Z,3.50
2022-09-18T05:09:24.358Z,3.90
2022-09-18T05:11:54.564Z,4.00
2022-09-18T05:14:24.900Z,3.85
2022-09-18T05:16:57.531Z,3.72
2022-09-18T05:19:30.229Z,4.00
2022-09-18T05:22:06.331Z,4.03
2022-09-18T05:24:37.880Z,3.43
2022-09-18T05:27:09.445Z,3.50
2022-09-18T05:29:37.734Z,4.30
2022-09-18T05:32:18.346Z,3.20
2022-09-18T05:34:46.746Z,3.55
2022-09-18T05:37:15.000Z,3.00
2022-09-18T05:39:43.422Z,3.22
2022-09-18T05:42:13.726Z,3.22
2022-09-18T05:44:42.022Z,2.85
2022-09-18T05:47:16.568Z,2.88
2022-09-18T05:49:44.906Z,3.70
2022-09-18T05:52:13.284Z,3.20
2022-09-18T05:54:42.371Z,2.90
2022-09-18T05:57:11.265Z,3.17
2022-09-18T05:59:40.834Z,3.20
2022-09-18T06:02:11.357Z,2.97
2022-09-18T06:05:06.861Z,3.03
2022-09-18T06:07:35.237Z,2.30
2022-09-18T06:10:04.334Z,3.10
2022-09-18T06:12:33.330Z,3.83
2022-09-18T06:15:05.061Z,3.33
2022-09-18T06:17:35.296Z,2.80
2022-09-18T06:20:07.124Z,3.00
2022-09-18T06:22:36.451Z,2.97
2022-09-18T06:25:05.326Z,3.00
2022-09-18T06:27:35.785Z,2.90
2022-09-18T06:30:06.213Z,2.70
2022-09-18T06:32:37.213Z,3.28
2022-09-18T06:35:06.026Z,2.90
2022-09-18T06:37:34.388Z,3.15
2022-09-18T06:40:25.648Z,3.40
2022-09-18T06:43:29.515Z,3.28
2022-09-18T06:46:02.231Z,3.42
2022-09-18T06:48:38.448Z,3.83
2022-09-18T06:51:07.602Z,3.80
2022-09-18T06:53:49.066Z,3.70
2022-09-18T06:56:17.367Z,3.50
2022-09-18T06:58:46.300Z,3.40
2022-09-18T07:01:18.466Z,3.60
2022-09-18T07:03:49.688Z,3.60
2022-09-18T07:06:23.265Z,3.30
2022-09-18T07:08:53.160Z,3.95
2022-09-18T07:11:30.890Z,3.20
2022-09-18T07:14:02.962Z,3.15
2022-09-18T07:16:32.661Z,3.30
2022-09-18T07:19:00.950Z,3.35
2022-09-18T07:21:31.047Z,2.90
2022-09-18T07:23:59.356Z,2.97
2022-09-18T07:26:27.551Z,7.45
2022-09-18T07:28:56.274Z,6.45
2022-09-18T07:31:29.343Z,4.82
2022-09-18T07:33:59.306Z,3.40
2022-09-18T07:36:29.785Z,2.90
2022-09-18T07:38:58.926Z,2.90
2022-09-18T07:41:39.262Z,3.08
2022-09-18T07:44:08.171Z,2.60
2022-09-18T07:46:36.743Z,3.03
2022-09-18T07:49:09.499Z,3.33
2022-09-18T07:51:38.278Z,2.80
2022-09-18T07:54:06.918Z,3.30
2022-09-18T07:56:55.435Z,3.25
2022-09-18T07:59:27.117Z,3.50
2022-09-18T08:02:00.422Z,3.33
2022-09-18T08:04:33.544Z,7.90
2022-09-18T08:07:22.394Z,5.72
2022-09-18T08:10:13.096Z,3.50
2022-09-18T08:13:05.205Z,2.95
2022-09-18T08:15:45.892Z,2.78
2022-09-18T08:18:34.352Z,3.05
2022-09-18T08:21:14.140Z,2.33
2022-09-18T08:23:48.394Z,2.80
2022-09-18T08:26:21.467Z,2.47
2022-09-18T08:28:51.666Z,2.20
2022-09-18T08:31:19.976Z,3.03
2022-09-18T08:33:48.276Z,3.13
2022-09-18T08:36:18.083Z,3.20
2022-09-18T08:39:15.447Z,3.23
2022-09-18T08:42:03.588Z,3.20
2022-09-18T08:44:44.926Z,3.50
2022-09-18T08:47:20.328Z,3.20
2022-09-18T08:49:55.190Z,2.50
2022-09-18T08:52:28.365Z,2.60
2022-09-18T08:55:20.166Z,2.83
2022-09-18T08:58:14.604Z,11.02
2022-09-18T09:00:49.981Z,5.18
2022-09-18T09:03:30.430Z,2.80
2022-09-18T09:06:01.290Z,2.10
2022-09-18T09:09:04.190Z,1.77
2022-09-18T09:11:42.732Z,1.70
2022-09-18T09:14:45.823Z,1.60
2022-09-18T09:17:20.720Z,2.20
2022-09-18T09:19:54.844Z,1.60
2022-09-18T09:22:37.392Z,1.45
2022-09-18T09:25:17.820Z,1.58
2022-09-18T09:28:14.512Z,1.70
2022-09-18T09:31:00.382Z,1.60
2022-09-18T09:33:55.289Z,1.77
2022-09-18T09:36:49.554Z,1.93
2022-09-18T09:39:24.555Z,2.42
2022-09-18T09:41:59.029Z,2.10
2022-09-18T09:44:38.497Z,2.08
2022-09-18T09:47:24.181Z,1.58
2022-09-18T09:50:16.608Z,2.20
2022-09-18T09:52:47.661Z,1.50
2022-09-18T09:55:28.954Z,1.30
2022-09-18T09:58:13.523Z,1.10
2022-09-18T10:00:51.883Z,1.40
2022-09-18T10:03:40.253Z,1.40
2022-09-18T10:06:20.176Z,1.30
2022-09-18T10:08:55.007Z,1.20
2022-09-18T10:11:24.694Z,0.70
2022-09-18T10:14:03.113Z,0.90
2022-09-18T10:16:37.412Z,4.45
2022-09-18T10:19:12.899Z,0.70
2022-09-18T10:21:43.595Z,0.70
2022-09-18T10:24:20.565Z,0.80
2022-09-18T10:26:54.843Z,0.60
2022-09-18T10:29:24.673Z,0.40
2022-09-18T10:31:58.239Z,0.57
2022-09-18T10:34:39.285Z,0.53
2022-09-18T10:37:15.762Z,0.70
2022-09-18T10:39:52.594Z,0.50
2022-09-18T10:42:24.090Z,0.70
2022-09-18T10:45:02.832Z,0.70
2022-09-18T10:47:36.402Z,0.70
2022-09-18T10:50:17.388Z,0.90
2022-09-18T10:52:47.535Z,0.63
2022-09-18T10:55:25.594Z,0.50
2022-09-18T10:58:12.769Z,1.17
2022-09-18T11:00:48.688Z,0.70
2022-09-18T11:03:29.996Z,0.80
2022-09-18T11:06:00.772Z,1.20
2022-09-18T11:08:33.773Z,0.93
2022-09-18T11:11:06.058Z,1.10
2022-09-18T11:13:45.320Z,1.10
2022-09-18T11:16:27.007Z,1.10
2022-09-18T11:19:07.369Z,0.90
2022-09-18T11:21:46.154Z,1.30
2022-09-18T11:24:24.142Z,1.80
2022-09-18T11:26:57.118Z,2.00
2022-09-18T11:29:31.743Z,1.45
2022-09-18T11:32:06.502Z,1.48
2022-09-18T11:34:38.975Z,1.70
2022-09-18T11:37:14.589Z,1.50
2022-09-18T11:39:51.042Z,1.50
2022-09-18T11:42:19.735Z,2.10
2022-09-18T11:44:49.516Z,2.20
2022-09-18T11:47:28.637Z,2.70
2022-09-18T11:50:08.335Z,2.83
2022-09-18T11:52:41.218Z,2.60
2022-09-18T11:55:19.745Z,2.10
2022-09-18T11:57:52.059Z,1.90
2022-09-18T12:00:23.212Z,2.00
2022-09-18T12:03:12.490Z,1.98
2022-09-18T12:05:52.349Z,1.60
2022-09-18T12:08:34.469Z,1.40
2022-09-18T12:11:17.469Z,1.20
2022-09-18T12:13:54.205Z,1.00
2022-09-18T12:16:32.213Z,1.60
2022-09-18T12:19:07.763Z,0.80
2022-09-18T12:21:43.007Z,0.73
2022-09-18T12:24:15.201Z,1.00
2022-09-18T12:27:10.998Z,1.48
2022-09-18T12:29:53.811Z,0.95
2022-09-18T12:32:35.164Z,1.40
2022-09-18T12:35:15.221Z,1.13
2022-09-18T12:37:57.949Z,1.10
2022-09-18T12:40:38.603Z,0.60
2022-09-18T12:43:34.230Z,1.10
2022-09-18T12:46:21.628Z,0.45
2022-09-18T12:49:02.762Z,0.70
2022-09-18T12:51:40.882Z,0.60
2022-09-18T12:54:40.098Z,0.40
2022-09-18T12:57:19.164Z,0.70
2022-09-18T12:59:56.063Z,0.50
2022-09-18T13:02:32.993Z,0.52
2022-09-18T13:05:05.521Z,2.35
2022-09-18T13:07:38.672Z,2.13
2022-09-18T13:10:19.537Z,0.95
2022-09-18T13:12:53.032Z,0.60
2022-09-18T13:15:26.782Z,0.93
2022-09-18T13:17:59.603Z,1.10
2022-09-18T13:20:32.966Z,1.00
2022-09-18T13:23:03.202Z,0.95
2022-09-18T13:25:35.848Z,0.90
2022-09-18T13:28:08.426Z,1.10
2022-09-18T13:30:36.897Z,1.00
2022-09-18T13:33:05.257Z,1.20
2022-09-18T13:35:36.197Z,1.60
2022-09-18T13:38:14.893Z,1.13
2022-09-18T13:40:45.204Z,1.40
2022-09-18T13:43:24.954Z,1.50
2022-09-18T13:45:53.907Z,1.30
2022-09-18T13:48:27.447Z,1.35
2022-09-18T13:50:58.828Z,1.02
2022-09-18T13:53:43.121Z,1.03
2022-09-18T13:56:12.506Z,1.33
2022-09-18T13:58:52.726Z,1.00
2022-09-18T14:01:54.420Z,1.33
2022-09-18T14:05:05.386Z,2.00
2022-09-18T14:07:57.835Z,3.30
2022-09-18T14:10:34.392Z,8.65
2022-09-18T14:13:30.216Z,2.70
2022-09-18T14:16:06.006Z,1.60
2022-09-18T14:18:38.996Z,7.53
2022-09-18T14:21:21.237Z,2.08
2022-09-18T14:24:20.940Z,1.30
2022-09-18T14:27:18.717Z,2.20
2022-09-18T14:29:49.704Z,2.00
2022-09-18T14:32:20.245Z,1.70
2022-09-18T14:34:48.627Z,1.70
2022-09-18T14:37:28.760Z,2.15
2022-09-18T14:39:58.698Z,1.60
2022-09-18T14:42:34.793Z,1.55
2022-09-18T14:45:09.849Z,1.85
2022-09-18T14:47:38.879Z,1.80
2022-09-18T14:50:23.559Z,1.60
2022-09-18T14:52:51.893Z,1.65
2022-09-18T14:55:22.717Z,1.30
2022-09-18T14:57:56.810Z,0.90
2022-09-18T15:00:28.233Z,1.00
2022-09-18T15:02:58.789Z,2.75
2022-09-18T15:05:28.822Z,1.30
2022-09-18T15:08:03.246Z,1.20
2022-09-18T15:10:33.626Z,2.25
2022-09-18T15:13:06.617Z,1.00
2022-09-18T15:15:38.201Z,1.00
2022-09-18T15:18:20.477Z,1.25
2022-09-18T15:20:51.008Z,1.20
2022-09-18T15:23:21.090Z,0.82
2022-09-18T15:25:53.497Z,1.30
2022-09-18T15:28:26.516Z,1.00
2022-09-18T15:30:58.326Z,2.00
2022-09-18T15:33:27.957Z,1.50
2022-09-18T15:35:56.974Z,3.80
2022-09-18T15:38:31.829Z,1.60
2022-09-18T15:41:05.313Z,3.42
2022-09-18T15:43:43.600Z,0.70
2022-09-18T15:46:13.788Z,0.80
2022-09-18T15:48:45.215Z,1.27
2022-09-18T15:51:16.543Z,1.10
2022-09-18T15:54:03.475Z,1.17
2022-09-18T15:56:34.039Z,1.00
2022-09-18T15:59:05.953Z,0.90
2022-09-18T16:01:36.815Z,2.55
2022-09-18T16:04:24.463Z,1.10
2022-09-18T16:07:01.462Z,1.30
2022-09-18T16:09:40.290Z,0.95
2022-09-18T16:12:39.822Z,1.00
2022-09-18T16:15:21.740Z,1.10
2022-09-18T16:18:20.468Z,1.50
2022-09-18T16:21:02.756Z,1.08
2022-09-18T16:23:33.875Z,1.33
2022-09-18T16:26:13.782Z,2.00
2022-09-18T16:28:43.943Z,1.90
2022-09-18T16:31:15.425Z,1.98
2022-09-18T16:33:55.366Z,1.40
2022-09-18T16:36:32.917Z,1.47
2022-09-18T16:39:02.793Z,1.60
2022-09-18T16:41:32.018Z,1.90
2022-09-18T16:44:00.986Z,1.40
2022-09-18T16:46:35.601Z,1.60
2022-09-18T16:49:04.137Z,1.77
2022-09-18T16:51:32.338Z,1.88
2022-09-18T16:54:00.738Z,1.40
2022-09-18T16:56:33.025Z,1.20
2022-09-18T16:59:03.443Z,1.20
2022-09-18T17:01:48.559Z,1.60
2022-09-18T17:04:24.279Z,1.70
2022-09-18T17:06:52.551Z,1.60
2022-09-18T17:09:21.337Z,2.00
2022-09-18T17:11:49.529Z,1.35
2022-09-18T17:14:17.722Z,1.40
2022-09-18T17:16:47.605Z,1.40
2022-09-18T17:19:16.183Z,2.17
2022-09-18T17:21:44.451Z,1.23
2022-09-18T17:24:12.973Z,1.40
2022-09-18T17:26:42.172Z,1.10
2022-09-18T17:29:11.505Z,1.20
2022-09-18T17:31:39.906Z,1.98
2022-09-18T17:34:09.656Z,2.20
2022-09-18T17:36:40.258Z,2.65
2022-09-18T17:39:08.562Z,1.40
2022-09-18T17:41:36.858Z,1.98
2022-09-18T17:44:05.409Z,1.30
2022-09-18T17:46:33.666Z,1.40
2022-09-18T17:49:02.297Z,1.17
2022-09-18T17:51:31.936Z,1.20
2022-09-18T17:54:02.850Z,1.30
2022-09-18T17:56:32.603Z,1.15
2022-09-18T17:59:05.564Z,1.42
2022-09-18T18:01:36.463Z,1.80
2022-09-18T18:04:05.317Z,1.80
2022-09-18T18:06:35.372Z,5.10
2022-09-18T18:09:05.302Z,5.00
2022-09-18T18:11:34.387Z,4.70
2022-09-18T18:14:04.590Z,3.78
2022-09-18T18:16:34.321Z,3.20
2022-09-18T18:19:04.516Z,2.20
2022-09-18T18:21:35.545Z,2.47
2022-09-18T18:24:08.837Z,2.30
2022-09-18T18:26:37.695Z,2.20
2022-09-18T18:29:12.302Z,2.50
2022-09-18T18:31:42.034Z,1.90
2022-09-18T18:34:11.535Z,2.30
2022-09-18T18:36:42.961Z,3.30
2022-09-18T18:39:12.964Z,2.90
2022-09-18T18:41:42.445Z,2.38
2022-09-18T18:44:13.244Z,2.10
2022-09-18T18:46:41.513Z,2.25
2022-09-18T18:49:11.990Z,2.60
2022-09-18T18:51:42.966Z,1.70
2022-09-18T18:54:11.321Z,2.10
2022-09-18T18:56:40.473Z,2.50
2022-09-18T18:59:12.621Z,2.05
2022-09-18T19:01:41.505Z,1.70
2022-09-18T19:04:11.806Z,1.40
2022-09-18T19:06:43.569Z,2.08
2022-09-18T19:09:20.073Z,1.50
2022-09-18T19:11:49.743Z,1.50
2022-09-18T19:14:19.562Z,1.40
2022-09-18T19:16:48.907Z,1.90
2022-09-18T19:19:19.682Z,1.93
2022-09-18T19:21:49.592Z,1.75
2022-09-18T19:24:19.217Z,1.43
2022-09-18T19:26:48.900Z,1.90
2022-09-18T19:29:18.908Z,2.00
2022-09-18T19:31:48.119Z,1.90
2022-09-18T19:34:18.473Z,2.00
2022-09-18T19:36:49.053Z,1.70
2022-09-18T19:39:19.738Z,2.22
2022-09-18T19:41:52.339Z,2.05
2022-09-18T19:44:31.234Z,2.40
2022-09-18T19:47:02.189Z,1.65
2022-09-18T19:49:33.494Z,2.75
2022-09-18T19:52:02.672Z,2.30
2022-09-18T19:54:32.210Z,2.90
2022-09-18T19:57:00.358Z,4.40
2022-09-18T19:59:28.822Z,2.23
2022-09-18T20:01:57.253Z,2.22
2022-09-18T20:04:25.845Z,2.33
2022-09-18T20:06:54.002Z,2.35
2022-09-18T20:09:22.468Z,1.80
2022-09-18T20:11:51.984Z,1.77
2022-09-18T20:14:20.156Z,1.90
2022-09-18T20:16:48.294Z,1.42
2022-09-18T20:19:17.027Z,1.60
2022-09-18T20:21:45.258Z,1.40
2022-09-18T20:24:13.728Z,1.30
2022-09-18T20:26:41.901Z,1.90
2022-09-18T20:29:16.102Z,1.40
2022-09-18T20:31:45.908Z,1.20
2022-09-18T20:34:14.397Z,1.13
2022-09-18T20:36:42.624Z,1.40
2022-09-18T20:39:10.760Z,1.38
2022-09-18T20:41:39.208Z,1.30
2022-09-18T20:44:07.593Z,1.23
2022-09-18T20:46:37.782Z,1.45
2022-09-18T20:49:07.958Z,1.58
2022-09-18T20:51:36.619Z,1.55
2022-09-18T20:54:08.129Z,1.40
2022-09-18T20:56:41.239Z,1.65
2022-09-18T20:59:10.978Z,1.70
2022-09-18T21:01:42.027Z,1.40
2022-09-18T21:04:17.005Z,1.27
2022-09-18T21:06:46.617Z,1.57
2022-09-18T21:09:15.586Z,1.60
2022-09-18T21:11:45.305Z,1.30
2022-09-18T21:14:16.668Z,1.40
2022-09-18T21:16:46.236Z,1.70
2022-09-18T21:19:17.031Z,1.60
2022-09-18T21:21:45.330Z,1.70
2022-09-18T21:24:17.395Z,1.50
2022-09-18T21:26:48.054Z,1.60
2022-09-18T21:29:18.219Z,1.95
2022-09-18T21:31:49.553Z,1.50
2022-09-18T21:34:24.216Z,1.48
2022-09-18T21:36:53.857Z,1.38
2022-09-18T21:39:22.071Z,1.58
2022-09-18T21:41:53.193Z,1.60
2022-09-18T21:44:24.679Z,1.80
2022-09-18T21:46:54.739Z,1.95
2022-09-18T21:49:22.958Z,1.52
2022-09-18T21:51:51.576Z,1.80
2022-09-18T21:54:21.911Z,1.80
2022-09-18T21:56:51.661Z,2.10
2022-09-18T21:59:20.523Z,2.30
2022-09-18T22:01:48.970Z,2.07
2022-09-18T22:04:18.955Z,2.00
2022-09-18T22:06:48.142Z,1.83
2022-09-18T22:09:18.828Z,1.60
2022-09-18T22:11:48.613Z,2.00
2022-09-18T22:14:22.663Z,1.70
2022-09-18T22:16:53.217Z,1.38
2022-09-18T22:19:23.054Z,1.90
2022-09-18T22:21:52.496Z,1.70
2022-09-18T22:24:23.010Z,1.33
2022-09-18T22:26:52.806Z,1.67
2022-09-18T22:29:22.896Z,1.58
2022-09-18T22:31:52.283Z,1.65
2022-09-18T22:34:24.249Z,1.83
2022-09-18T22:36:52.744Z,1.60
2022-09-18T22:39:22.158Z,1.50
2022-09-18T22:41:51.549Z,1.52
2022-09-18T22:44:21.317Z,1.60
2022-09-18T22:46:52.015Z,1.45
2022-09-18T22:49:23.366Z,2.00
2022-09-18T22:51:52.681Z,1.40
2022-09-18T22:54:24.920Z,1.40
2022-09-18T22:56:53.673Z,1.40
2022-09-18T22:59:23.591Z,1.30
2022-09-18T23:01:54.227Z,1.60
2022-09-18T23:04:26.321Z,1.80
2022-09-18T23:06:54.532Z,1.40
2022-09-18T23:09:22.896Z,1.70
2022-09-18T23:11:53.233Z,1.65
2022-09-18T23:14:22.801Z,1.60
2022-09-18T23:16:51.731Z,1.60
2022-09-18T23:19:22.483Z,1.95
2022-09-18T23:21:52.132Z,1.83
2022-09-18T23:24:20.733Z,1.90
2022-09-18T23:26:50.679Z,2.08
2022-09-18T23:29:21.285Z,2.20
2022-09-18T23:31:52.926Z,1.40
2022-09-18T23:34:24.529Z,2.10
2022-09-18T23:36:56.177Z,1.50
2022-09-18T23:39:26.976Z,2.10
2022-09-18T23:41:55.617Z,1.80
2022-09-18T23:44:24.531Z,1.90
2022-09-18T23:46:53.104Z,1.80
2022-09-18T23:49:23.529Z,1.80
2022-09-18T23:51:54.649Z,1.50
2022-09-18T23:54:24.858Z,1.85
2022-09-18T23:56:53.741Z,1.90
2022-09-18T23:59:23.828Z,1.60
